sensor_id;sensor_type;location;lat;lon;timestamp;temperature;humidity
48936;DHT22;34745;52.276;10.528;2023-11-21T00:00:39;8.90;99.90
48936;DHT22;34745;52.276;10.528;2023-11-21T00:03:06;8.80;99.90
48936;DHT22;34745;52.276;10.528;2023-11-21T00:05:34;8.90;99.90
48936;DHT22;34745;52.276;10.528;2023-11-21T00:08:03;8.80;99.90
48936;DHT22;34745;52.276;10.528;2023-11-21T00:10:32;8.90;99.90
48936;DHT22;34745;52.276;10.528;2023-11-21T00:12:59;8.90;99.90
48936;DHT22;34745;52.276;10.528;2023-11-21T00:15:26;8.90;99.90
48936;DHT22;34745;52.276;10.528;2023-11-21T00:17:53;8.80;99.90
48936;DHT22;34745;52.276;10.528;2023-11-21T00:20:20;8.80;99.90
48936;DHT22;34745;52.276;10.528;2023-11-21T00:22:48;8.70;99.90
48936;DHT22;34745;52.276;10.528;2023-11-21T00:25:17;8.80;99.90
48936;DHT22;34745;52.276;10.528;2023-11-21T00:27:44;8.70;99.90
48936;DHT22;34745;52.276;10.528;2023-11-21T00:30:12;8.70;99.90
48936;DHT22;34745;52.276;10.528;2023-11-21T00:32:39;8.70;99.90
48936;DHT22;34745;52.276;10.528;2023-11-21T00:35:07;8.70;99.90
48936;DHT22;34745;52.276;10.528;2023-11-21T00:37:34;8.70;99.90
48936;DHT22;34745;52.276;10.528;2023-11-21T00:40:01;8.70;99.90
48936;DHT22;34745;52.276;10.528;2023-11-21T00:42:33;8.70;99.90
48936;DHT22;34745;52.276;10.528;2023-11-21T00:45:03;8.60;99.90
48936;DHT22;34745;52.276;10.528;2023-11-21T00:47:30;8.60;99.90
48936;DHT22;34745;52.276;10.528;2023-11-21T00:49:58;8.60;99.90
48936;DHT22;34745;52.276;10.528;2023-11-21T00:52:25;8.60;99.90
48936;DHT22;34745;52.276;10.528;2023-11-21T00:54:52;8.60;99.90
48936;DHT22;34745;52.276;10.528;2023-11-21T00:57:20;8.60;99.90
48936;DHT22;34745;52.276;10.528;2023-11-21T00:59:49;8.60;99.90
48936;DHT22;34745;52.276;10.528;2023-11-21T01:02:16;8.60;99.90
48936;DHT22;34745;52.276;10.528;2023-11-21T01:04:43;8.60;99.90
48936;DHT22;34745;52.276;10.528;2023-11-21T01:07:10;8.60;99.90
48936;DHT22;34745;52.276;10.528;2023-11-21T01:09:37;8.60;99.90
48936;DHT22;34745;52.276;10.528;2023-11-21T01:12:05;8.60;99.90
48936;DHT22;34745;52.276;10.528;2023-11-21T01:14:32;8.50;99.90
48936;DHT22;34745;52.276;10.528;2023-11-21T01:17:00;8.50;99.90
48936;DHT22;34745;52.276;10.528;2023-11-21T01:19:27;8.40;99.90
48936;DHT22;34745;52.276;10.528;2023-11-21T01:21:55;8.50;99.90
48936;DHT22;34745;52.276;10.528;2023-11-21T01:24:24;8.50;99.90
48936;DHT22;34745;52.276;10.528;2023-11-21T01:26:51;8.50;99.90
48936;DHT22;34745;52.276;10.528;2023-11-21T01:29:18;8.50;99.90
48936;DHT22;34745;52.276;10.528;2023-11-21T01:31:47;8.50;99.90
48936;DHT22;34745;52.276;10.528;2023-11-21T01:34:15;8.50;99.90
48936;DHT22;34745;52.276;10.528;2023-11-21T01:36:42;8.50;99.90
48936;DHT22;34745;52.276;10.528;2023-11-21T01:39:09;8.50;99.90
48936;DHT22;34745;52.276;10.528;2023-11-21T01:41:40;8.50;99.90
48936;DHT22;34745;52.276;10.528;2023-11-21T01:44:07;8.50;99.90
48936;DHT22;34745;52.276;10.528;2023-11-21T01:46:36;8.50;99.90
48936;DHT22;34745;52.276;10.528;2023-11-21T01:49:04;8.50;99.90
48936;DHT22;34745;52.276;10.528;2023-11-21T01:51:34;8.50;99.90
48936;DHT22;34745;52.276;10.528;2023-11-21T01:54:01;8.40;99.90
48936;DHT22;34745;52.276;10.528;2023-11-21T01:56:28;8.40;99.90
48936;DHT22;34745;52.276;10.528;2023-11-21T01:58:55;8.40;99.90
48936;DHT22;34745;52.276;10.528;2023-11-21T02:01:24;8.40;99.90
48936;DHT22;34745;52.276;10.528;2023-11-21T02:03:52;8.40;99.90
48936;DHT22;34745;52.276;10.528;2023-11-21T02:06:19;8.50;99.90
48936;DHT22;34745;52.276;10.528;2023-11-21T02:08:48;8.40;99.90
48936;DHT22;34745;52.276;10.528;2023-11-21T02:11:16;8.40;99.90
48936;DHT22;34745;52.276;10.528;2023-11-21T02:13:43;8.50;99.90
48936;DHT22;34745;52.276;10.528;2023-11-21T02:16:10;8.50;99.90
48936;DHT22;34745;52.276;10.528;2023-11-21T02:18:39;8.50;99.90
48936;DHT22;34745;52.276;10.528;2023-11-21T02:21:07;8.50;99.90
48936;DHT22;34745;52.276;10.528;2023-11-21T02:23:35;8.50;99.90
48936;DHT22;34745;52.276;10.528;2023-11-21T02:26:02;8.60;99.90
48936;DHT22;34745;52.276;10.528;2023-11-21T02:28:30;8.50;99.90
48936;DHT22;34745;52.276;10.528;2023-11-21T02:30:58;8.50;99.90
48936;DHT22;34745;52.276;10.528;2023-11-21T02:33:26;8.50;99.90
48936;DHT22;34745;52.276;10.528;2023-11-21T02:35:53;8.50;99.90
48936;DHT22;34745;52.276;10.528;2023-11-21T02:38:22;8.70;99.90
48936;DHT22;34745;52.276;10.528;2023-11-21T02:40:50;8.60;99.90
48936;DHT22;34745;52.276;10.528;2023-11-21T02:43:17;8.50;99.90
48936;DHT22;34745;52.276;10.528;2023-11-21T02:45:44;8.60;99.90
48936;DHT22;34745;52.276;10.528;2023-11-21T02:48:11;8.60;99.90
48936;DHT22;34745;52.276;10.528;2023-11-21T02:50:38;8.50;99.90
48936;DHT22;34745;52.276;10.528;2023-11-21T02:53:05;8.50;99.90
48936;DHT22;34745;52.276;10.528;2023-11-21T02:55:32;8.60;99.90
48936;DHT22;34745;52.276;10.528;2023-11-21T02:58:04;8.60;99.90
48936;DHT22;34745;52.276;10.528;2023-11-21T03:00:31;8.60;99.90
48936;DHT22;34745;52.276;10.528;2023-11-21T03:02:58;8.60;99.90
48936;DHT22;34745;52.276;10.528;2023-11-21T03:05:25;8.60;99.90
48936;DHT22;34745;52.276;10.528;2023-11-21T03:07:52;8.60;99.90
48936;DHT22;34745;52.276;10.528;2023-11-21T03:10:19;8.60;99.90
48936;DHT22;34745;52.276;10.528;2023-11-21T03:12:46;8.60;99.90
48936;DHT22;34745;52.276;10.528;2023-11-21T03:15:15;8.60;99.90
48936;DHT22;34745;52.276;10.528;2023-11-21T03:17:42;8.50;99.90
48936;DHT22;34745;52.276;10.528;2023-11-21T03:20:10;8.60;99.90
48936;DHT22;34745;52.276;10.528;2023-11-21T03:22:38;8.60;99.90
48936;DHT22;34745;52.276;10.528;2023-11-21T03:25:06;8.60;99.90
48936;DHT22;34745;52.276;10.528;2023-11-21T03:27:38;8.60;99.90
48936;DHT22;34745;52.276;10.528;2023-11-21T03:30:08;8.60;99.90
48936;DHT22;34745;52.276;10.528;2023-11-21T03:32:37;8.60;99.90
48936;DHT22;34745;52.276;10.528;2023-11-21T03:35:04;8.60;99.90
48936;DHT22;34745;52.276;10.528;2023-11-21T03:37:33;8.60;99.90
48936;DHT22;34745;52.276;10.528;2023-11-21T03:40:01;8.50;99.90
48936;DHT22;34745;52.276;10.528;2023-11-21T03:42:31;8.60;99.90
48936;DHT22;34745;52.276;10.528;2023-11-21T03:44:58;8.50;99.90
48936;DHT22;34745;52.276;10.528;2023-11-21T03:47:26;8.60;99.90
48936;DHT22;34745;52.276;10.528;2023-11-21T03:49:54;8.50;99.90
48936;DHT22;34745;52.276;10.528;2023-11-21T03:52:21;8.60;99.90
48936;DHT22;34745;52.276;10.528;2023-11-21T03:54:48;8.60;99.90
48936;DHT22;34745;52.276;10.528;2023-11-21T03:57:15;8.50;99.90
48936;DHT22;34745;52.276;10.528;2023-11-21T03:59:43;8.60;99.90
48936;DHT22;34745;52.276;10.528;2023-11-21T04:02:10;8.60;99.90
48936;DHT22;34745;52.276;10.528;2023-11-21T04:04:37;8.60;99.90
48936;DHT22;34745;52.276;10.528;2023-11-21T04:07:06;8.60;99.90
48936;DHT22;34745;52.276;10.528;2023-11-21T04:09:33;8.60;99.90
48936;DHT22;34745;52.276;10.528;2023-11-21T04:12:00;8.60;99.90
48936;DHT22;34745;52.276;10.528;2023-11-21T04:14:27;8.50;99.90
48936;DHT22;34745;52.276;10.528;2023-11-21T04:16:54;8.60;99.90
48936;DHT22;34745;52.276;10.528;2023-11-21T04:19:21;8.60;99.90
48936;DHT22;34745;52.276;10.528;2023-11-21T04:21:49;8.60;99.90
48936;DHT22;34745;52.276;10.528;2023-11-21T04:24:17;8.60;99.90
48936;DHT22;34745;52.276;10.528;2023-11-21T04:26:44;8.60;99.90
48936;DHT22;34745;52.276;10.528;2023-11-21T04:29:12;8.60;99.90
48936;DHT22;34745;52.276;10.528;2023-11-21T04:31:39;8.60;99.90
48936;DHT22;34745;52.276;10.528;2023-11-21T04:34:06;8.60;99.90
48936;DHT22;34745;52.276;10.528;2023-11-21T04:36:33;8.60;99.90
48936;DHT22;34745;52.276;10.528;2023-11-21T04:39:02;8.60;99.90
48936;DHT22;34745;52.276;10.528;2023-11-21T04:41:30;8.70;99.90
48936;DHT22;34745;52.276;10.528;2023-11-21T04:43:59;8.60;99.90
48936;DHT22;34745;52.276;10.528;2023-11-21T04:46:27;8.60;99.90
48936;DHT22;34745;52.276;10.528;2023-11-21T04:48:55;8.60;99.90
48936;DHT22;34745;52.276;10.528;2023-11-21T04:51:22;8.60;99.90
48936;DHT22;34745;52.276;10.528;2023-11-21T04:53:48;8.60;99.90
48936;DHT22;34745;52.276;10.528;2023-11-21T04:56:16;8.60;99.90
48936;DHT22;34745;52.276;10.528;2023-11-21T04:58:45;8.60;99.90
48936;DHT22;34745;52.276;10.528;2023-11-21T05:01:12;8.60;99.90
48936;DHT22;34745;52.276;10.528;2023-11-21T05:03:40;8.60;99.90
48936;DHT22;34745;52.276;10.528;2023-11-21T05:06:09;8.60;99.90
48936;DHT22;34745;52.276;10.528;2023-11-21T05:08:37;8.50;99.90
48936;DHT22;34745;52.276;10.528;2023-11-21T05:11:04;8.60;99.90
48936;DHT22;34745;52.276;10.528;2023-11-21T05:13:34;8.60;99.90
48936;DHT22;34745;52.276;10.528;2023-11-21T05:16:02;8.50;99.90
48936;DHT22;34745;52.276;10.528;2023-11-21T05:18:31;8.50;99.90
48936;DHT22;34745;52.276;10.528;2023-11-21T05:20:58;8.50;99.90
48936;DHT22;34745;52.276;10.528;2023-11-21T05:23:25;8.60;99.90
48936;DHT22;34745;52.276;10.528;2023-11-21T05:25:52;8.50;99.90
48936;DHT22;34745;52.276;10.528;2023-11-21T05:28:19;8.50;99.90
48936;DHT22;34745;52.276;10.528;2023-11-21T05:30:47;8.60;99.90
48936;DHT22;34745;52.276;10.528;2023-11-21T05:33:15;8.60;99.90
48936;DHT22;34745;52.276;10.528;2023-11-21T05:35:42;8.60;99.90
48936;DHT22;34745;52.276;10.528;2023-11-21T05:38:09;8.60;99.90
48936;DHT22;34745;52.276;10.528;2023-11-21T05:40:36;8.60;99.90
48936;DHT22;34745;52.276;10.528;2023-11-21T05:43:04;8.60;99.90
48936;DHT22;34745;52.276;10.528;2023-11-21T05:45:32;8.60;99.90
48936;DHT22;34745;52.276;10.528;2023-11-21T05:47:59;8.60;99.90
48936;DHT22;34745;52.276;10.528;2023-11-21T05:50:27;8.70;99.90
48936;DHT22;34745;52.276;10.528;2023-11-21T05:52:55;8.60;99.90
48936;DHT22;34745;52.276;10.528;2023-11-21T05:55:23;8.70;99.90
48936;DHT22;34745;52.276;10.528;2023-11-21T05:57:53;8.50;99.90
48936;DHT22;34745;52.276;10.528;2023-11-21T06:00:20;8.60;99.90
48936;DHT22;34745;52.276;10.528;2023-11-21T06:02:52;8.60;99.90
48936;DHT22;34745;52.276;10.528;2023-11-21T06:05:22;8.60;99.90
48936;DHT22;34745;52.276;10.528;2023-11-21T06:07:55;8.70;99.90
48936;DHT22;34745;52.276;10.528;2023-11-21T06:10:26;8.70;99.90
48936;DHT22;34745;52.276;10.528;2023-11-21T06:12:55;8.60;99.90
48936;DHT22;34745;52.276;10.528;2023-11-21T06:15:22;8.60;99.90
48936;DHT22;34745;52.276;10.528;2023-11-21T06:17:50;8.60;99.90
48936;DHT22;34745;52.276;10.528;2023-11-21T06:20:20;8.60;99.90
48936;DHT22;34745;52.276;10.528;2023-11-21T06:22:49;8.60;99.90
48936;DHT22;34745;52.276;10.528;2023-11-21T06:25:18;8.60;99.90
48936;DHT22;34745;52.276;10.528;2023-11-21T06:27:47;8.60;99.90
48936;DHT22;34745;52.276;10.528;2023-11-21T06:30:15;8.50;99.90
48936;DHT22;34745;52.276;10.528;2023-11-21T06:32:43;8.50;99.90
48936;DHT22;34745;52.276;10.528;2023-11-21T06:35:14;8.50;99.90
48936;DHT22;34745;52.276;10.528;2023-11-21T06:37:43;8.40;99.90
48936;DHT22;34745;52.276;10.528;2023-11-21T06:40:18;8.40;99.90
48936;DHT22;34745;52.276;10.528;2023-11-21T06:42:46;8.30;99.90
48936;DHT22;34745;52.276;10.528;2023-11-21T06:45:15;8.30;99.90
48936;DHT22;34745;52.276;10.528;2023-11-21T06:47:42;8.30;99.90
48936;DHT22;34745;52.276;10.528;2023-11-21T06:50:10;8.30;99.90
48936;DHT22;34745;52.276;10.528;2023-11-21T06:52:37;8.20;99.90
48936;DHT22;34745;52.276;10.528;2023-11-21T06:55:06;8.10;99.90
48936;DHT22;34745;52.276;10.528;2023-11-21T06:57:36;8.10;99.90
48936;DHT22;34745;52.276;10.528;2023-11-21T07:00:05;8.10;99.90
48936;DHT22;34745;52.276;10.528;2023-11-21T07:02:33;8.00;99.90
48936;DHT22;34745;52.276;10.528;2023-11-21T07:05:00;8.10;99.90
48936;DHT22;34745;52.276;10.528;2023-11-21T07:07:27;8.00;99.90
48936;DHT22;34745;52.276;10.528;2023-11-21T07:09:54;7.90;99.90
48936;DHT22;34745;52.276;10.528;2023-11-21T07:12:21;7.90;99.90
48936;DHT22;34745;52.276;10.528;2023-11-21T07:14:51;7.90;99.90
48936;DHT22;34745;52.276;10.528;2023-11-21T07:17:18;7.90;99.90
48936;DHT22;34745;52.276;10.528;2023-11-21T07:19:45;7.90;99.90
48936;DHT22;34745;52.276;10.528;2023-11-21T07:22:12;7.90;99.90
48936;DHT22;34745;52.276;10.528;2023-11-21T07:24:42;7.90;99.90
48936;DHT22;34745;52.276;10.528;2023-11-21T07:27:09;7.90;99.90
48936;DHT22;34745;52.276;10.528;2023-11-21T07:29:36;7.90;99.90
48936;DHT22;34745;52.276;10.528;2023-11-21T07:32:05;7.80;99.90
48936;DHT22;34745;52.276;10.528;2023-11-21T07:34:32;7.80;99.90
48936;DHT22;34745;52.276;10.528;2023-11-21T07:36:59;7.90;99.90
48936;DHT22;34745;52.276;10.528;2023-11-21T07:39:26;7.90;99.90
48936;DHT22;34745;52.276;10.528;2023-11-21T07:41:54;7.90;99.90
48936;DHT22;34745;52.276;10.528;2023-11-21T07:44:21;7.80;99.90
48936;DHT22;34745;52.276;10.528;2023-11-21T07:46:48;7.90;99.90
48936;DHT22;34745;52.276;10.528;2023-11-21T07:49:18;7.90;99.90
48936;DHT22;34745;52.276;10.528;2023-11-21T07:51:47;7.80;99.90
48936;DHT22;34745;52.276;10.528;2023-11-21T07:54:15;7.80;99.90
48936;DHT22;34745;52.276;10.528;2023-11-21T07:56:43;7.80;99.90
48936;DHT22;34745;52.276;10.528;2023-11-21T07:59:10;7.90;99.90
48936;DHT22;34745;52.276;10.528;2023-11-21T08:01:37;8.10;99.90
48936;DHT22;34745;52.276;10.528;2023-11-21T08:04:04;8.10;99.90
48936;DHT22;34745;52.276;10.528;2023-11-21T08:06:33;8.00;99.90
48936;DHT22;34745;52.276;10.528;2023-11-21T08:09:00;8.20;99.90
48936;DHT22;34745;52.276;10.528;2023-11-21T08:11:27;8.20;99.90
48936;DHT22;34745;52.276;10.528;2023-11-21T08:13:56;8.10;99.90
48936;DHT22;34745;52.276;10.528;2023-11-21T08:16:24;8.10;99.90
48936;DHT22;34745;52.276;10.528;2023-11-21T08:18:51;8.10;99.90
48936;DHT22;34745;52.276;10.528;2023-11-21T08:21:18;8.00;99.90
48936;DHT22;34745;52.276;10.528;2023-11-21T08:23:47;8.00;99.90
48936;DHT22;34745;52.276;10.528;2023-11-21T08:26:21;7.90;99.90
48936;DHT22;34745;52.276;10.528;2023-11-21T08:28:48;7.90;99.90
48936;DHT22;34745;52.276;10.528;2023-11-21T08:31:15;7.90;99.90
48936;DHT22;34745;52.276;10.528;2023-11-21T08:33:42;7.90;99.90
48936;DHT22;34745;52.276;10.528;2023-11-21T08:36:10;7.90;99.90
48936;DHT22;34745;52.276;10.528;2023-11-21T08:38:39;7.90;99.90
48936;DHT22;34745;52.276;10.528;2023-11-21T08:41:09;7.90;99.90
48936;DHT22;34745;52.276;10.528;2023-11-21T08:43:36;7.90;99.90
48936;DHT22;34745;52.276;10.528;2023-11-21T08:46:06;7.90;99.90
48936;DHT22;34745;52.276;10.528;2023-11-21T08:48:36;7.90;81.00
48936;DHT22;34745;52.276;10.528;2023-11-21T08:51:03;7.80;61.00
48936;DHT22;34745;52.276;10.528;2023-11-21T08:53:31;7.90;53.00
48936;DHT22;34745;52.276;10.528;2023-11-21T08:55:59;7.90;45.00
48936;DHT22;34745;52.276;10.528;2023-11-21T08:58:28;7.80;32.80
48936;DHT22;34745;52.276;10.528;2023-11-21T09:00:55;7.90;19.80
48936;DHT22;34745;52.276;10.528;2023-11-21T09:03:22;7.90;12.60
48936;DHT22;34745;52.276;10.528;2023-11-21T09:05:50;7.90;10.50
48936;DHT22;34745;52.276;10.528;2023-11-21T09:08:17;7.90;3.30
48936;DHT22;34745;52.276;10.528;2023-11-21T09:10:43;7.80;1.00
48936;DHT22;34745;52.276;10.528;2023-11-21T09:13:13;7.90;1.00
48936;DHT22;34745;52.276;10.528;2023-11-21T09:15:44;8.00;1.00
48936;DHT22;34745;52.276;10.528;2023-11-21T09:18:16;7.90;1.00
48936;DHT22;34745;52.276;10.528;2023-11-21T09:20:43;7.80;1.00
48936;DHT22;34745;52.276;10.528;2023-11-21T09:23:13;8.00;1.00
48936;DHT22;34745;52.276;10.528;2023-11-21T09:25:40;7.90;1.00
48936;DHT22;34745;52.276;10.528;2023-11-21T09:28:07;7.80;1.00
48936;DHT22;34745;52.276;10.528;2023-11-21T09:30:35;7.90;1.00
48936;DHT22;34745;52.276;10.528;2023-11-21T09:33:04;7.90;1.00
48936;DHT22;34745;52.276;10.528;2023-11-21T09:35:37;7.90;1.00
48936;DHT22;34745;52.276;10.528;2023-11-21T09:38:05;7.90;1.00
48936;DHT22;34745;52.276;10.528;2023-11-21T09:40:38;7.90;1.00
48936;DHT22;34745;52.276;10.528;2023-11-21T09:43:07;7.90;1.00
48936;DHT22;34745;52.276;10.528;2023-11-21T09:45:35;7.90;1.00
48936;DHT22;34745;52.276;10.528;2023-11-21T09:48:05;7.90;1.00
48936;DHT22;34745;52.276;10.528;2023-11-21T09:50:33;7.90;1.00
48936;DHT22;34745;52.276;10.528;2023-11-21T09:53:09;8.00;1.00
48936;DHT22;34745;52.276;10.528;2023-11-21T09:55:42;8.00;1.00
48936;DHT22;34745;52.276;10.528;2023-11-21T09:58:11;8.10;1.00
48936;DHT22;34745;52.276;10.528;2023-11-21T10:00:41;8.10;1.00
48936;DHT22;34745;52.276;10.528;2023-11-21T10:03:10;8.20;1.00
48936;DHT22;34745;52.276;10.528;2023-11-21T10:05:38;8.20;1.00
48936;DHT22;34745;52.276;10.528;2023-11-21T10:08:08;8.30;1.00
48936;DHT22;34745;52.276;10.528;2023-11-21T10:10:37;8.30;1.00
48936;DHT22;34745;52.276;10.528;2023-11-21T10:13:07;8.30;1.00
48936;DHT22;34745;52.276;10.528;2023-11-21T10:15:37;8.40;1.00
48936;DHT22;34745;52.276;10.528;2023-11-21T10:18:07;8.30;1.00
48936;DHT22;34745;52.276;10.528;2023-11-21T10:20:35;8.20;1.00
48936;DHT22;34745;52.276;10.528;2023-11-21T10:23:05;8.10;1.00
48936;DHT22;34745;52.276;10.528;2023-11-21T10:25:34;8.20;1.00
48936;DHT22;34745;52.276;10.528;2023-11-21T10:28:04;8.20;1.00
48936;DHT22;34745;52.276;10.528;2023-11-21T10:30:33;8.20;1.00
48936;DHT22;34745;52.276;10.528;2023-11-21T10:33:04;8.30;1.00
48936;DHT22;34745;52.276;10.528;2023-11-21T10:35:46;8.30;1.00
48936;DHT22;34745;52.276;10.528;2023-11-21T10:38:16;8.30;1.00
48936;DHT22;34745;52.276;10.528;2023-11-21T10:40:43;8.40;1.00
48936;DHT22;34745;52.276;10.528;2023-11-21T10:43:13;8.40;1.00
48936;DHT22;34745;52.276;10.528;2023-11-21T10:45:43;8.40;1.00
48936;DHT22;34745;52.276;10.528;2023-11-21T10:48:12;8.50;1.00
48936;DHT22;34745;52.276;10.528;2023-11-21T10:50:45;8.40;1.00
48936;DHT22;34745;52.276;10.528;2023-11-21T10:53:12;8.40;1.00
48936;DHT22;34745;52.276;10.528;2023-11-21T10:55:40;8.30;1.00
48936;DHT22;34745;52.276;10.528;2023-11-21T10:58:08;8.50;1.00
48936;DHT22;34745;52.276;10.528;2023-11-21T11:00:38;8.50;1.00
48936;DHT22;34745;52.276;10.528;2023-11-21T11:03:07;8.60;1.00
48936;DHT22;34745;52.276;10.528;2023-11-21T11:05:44;8.60;1.00
48936;DHT22;34745;52.276;10.528;2023-11-21T11:08:20;8.50;1.00
48936;DHT22;34745;52.276;10.528;2023-11-21T11:10:53;8.50;1.00
48936;DHT22;34745;52.276;10.528;2023-11-21T11:13:20;8.40;1.00
48936;DHT22;34745;52.276;10.528;2023-11-21T11:15:49;8.50;1.00
48936;DHT22;34745;52.276;10.528;2023-11-21T11:18:16;8.50;1.00
48936;DHT22;34745;52.276;10.528;2023-11-21T11:20:47;8.50;1.00
48936;DHT22;34745;52.276;10.528;2023-11-21T11:23:30;8.50;1.00
48936;DHT22;34745;52.276;10.528;2023-11-21T11:26:09;8.40;1.00
48936;DHT22;34745;52.276;10.528;2023-11-21T11:28:46;8.50;1.00
48936;DHT22;34745;52.276;10.528;2023-11-21T11:31:26;8.50;1.00
48936;DHT22;34745;52.276;10.528;2023-11-21T11:33:58;8.50;1.00
48936;DHT22;34745;52.276;10.528;2023-11-21T11:36:34;8.50;1.00
48936;DHT22;34745;52.276;10.528;2023-11-21T11:39:02;8.50;1.00
48936;DHT22;34745;52.276;10.528;2023-11-21T11:41:32;8.50;1.00
48936;DHT22;34745;52.276;10.528;2023-11-21T11:44:01;8.50;1.00
48936;DHT22;34745;52.276;10.528;2023-11-21T11:46:41;8.50;1.00
48936;DHT22;34745;52.276;10.528;2023-11-21T11:49:09;8.60;1.00
48936;DHT22;34745;52.276;10.528;2023-11-21T11:51:37;8.60;1.00
48936;DHT22;34745;52.276;10.528;2023-11-21T11:54:05;8.60;1.00
48936;DHT22;34745;52.276;10.528;2023-11-21T11:56:34;8.50;1.00
48936;DHT22;34745;52.276;10.528;2023-11-21T11:59:04;8.50;1.00
48936;DHT22;34745;52.276;10.528;2023-11-21T12:01:33;8.50;1.00
48936;DHT22;34745;52.276;10.528;2023-11-21T12:04:25;8.50;1.00
48936;DHT22;34745;52.276;10.528;2023-11-21T12:07:03;8.40;1.00
48936;DHT22;34745;52.276;10.528;2023-11-21T12:09:31;8.40;1.00
48936;DHT22;34745;52.276;10.528;2023-11-21T12:11:59;8.50;1.00
48936;DHT22;34745;52.276;10.528;2023-11-21T12:14:27;8.50;1.00
48936;DHT22;34745;52.276;10.528;2023-11-21T12:16:55;8.60;1.00
48936;DHT22;34745;52.276;10.528;2023-11-21T12:19:22;8.50;1.00
48936;DHT22;34745;52.276;10.528;2023-11-21T12:21:49;8.60;1.00
48936;DHT22;34745;52.276;10.528;2023-11-21T12:24:18;8.60;1.00
48936;DHT22;34745;52.276;10.528;2023-11-21T12:26:46;8.60;1.00
48936;DHT22;34745;52.276;10.528;2023-11-21T12:29:13;8.60;1.00
48936;DHT22;34745;52.276;10.528;2023-11-21T12:31:40;8.60;1.00
48936;DHT22;34745;52.276;10.528;2023-11-21T12:34:07;8.60;1.00
48936;DHT22;34745;52.276;10.528;2023-11-21T12:36:38;8.60;1.00
48936;DHT22;34745;52.276;10.528;2023-11-21T12:39:05;8.60;1.00
48936;DHT22;34745;52.276;10.528;2023-11-21T12:41:34;8.60;1.00
48936;DHT22;34745;52.276;10.528;2023-11-21T12:44:01;8.60;1.00
48936;DHT22;34745;52.276;10.528;2023-11-21T12:46:28;8.60;1.00
48936;DHT22;34745;52.276;10.528;2023-11-21T12:48:59;8.60;1.00
48936;DHT22;34745;52.276;10.528;2023-11-21T12:51:27;8.60;1.00
48936;DHT22;34745;52.276;10.528;2023-11-21T12:53:56;8.60;1.00
48936;DHT22;34745;52.276;10.528;2023-11-21T12:56:23;8.50;1.00
48936;DHT22;34745;52.276;10.528;2023-11-21T12:58:54;8.50;1.00
48936;DHT22;34745;52.276;10.528;2023-11-21T13:01:25;8.50;1.00
48936;DHT22;34745;52.276;10.528;2023-11-21T13:03:57;8.40;1.00
48936;DHT22;34745;52.276;10.528;2023-11-21T13:06:25;8.30;1.00
48936;DHT22;34745;52.276;10.528;2023-11-21T13:08:54;8.20;1.00
48936;DHT22;34745;52.276;10.528;2023-11-21T13:11:23;8.30;1.00
48936;DHT22;34745;52.276;10.528;2023-11-21T13:13:54;8.30;1.00
48936;DHT22;34745;52.276;10.528;2023-11-21T13:16:23;8.40;1.00
48936;DHT22;34745;52.276;10.528;2023-11-21T13:18:50;8.40;1.00
48936;DHT22;34745;52.276;10.528;2023-11-21T13:21:17;8.40;1.00
48936;DHT22;34745;52.276;10.528;2023-11-21T13:23:44;8.30;1.00
48936;DHT22;34745;52.276;10.528;2023-11-21T13:26:13;8.30;1.00
48936;DHT22;34745;52.276;10.528;2023-11-21T13:28:41;8.30;1.00
48936;DHT22;34745;52.276;10.528;2023-11-21T13:31:15;8.30;1.00
48936;DHT22;34745;52.276;10.528;2023-11-21T13:33:49;8.20;1.00
48936;DHT22;34745;52.276;10.528;2023-11-21T13:36:22;8.20;1.00
48936;DHT22;34745;52.276;10.528;2023-11-21T13:38:50;8.20;1.00
48936;DHT22;34745;52.276;10.528;2023-11-21T13:41:19;8.20;1.00
48936;DHT22;34745;52.276;10.528;2023-11-21T13:43:46;8.30;1.00
48936;DHT22;34745;52.276;10.528;2023-11-21T13:46:21;8.20;1.00
48936;DHT22;34745;52.276;10.528;2023-11-21T13:48:50;8.20;1.00
48936;DHT22;34745;52.276;10.528;2023-11-21T13:51:23;8.20;1.00
48936;DHT22;34745;52.276;10.528;2023-11-21T13:54:03;8.20;1.00
48936;DHT22;34745;52.276;10.528;2023-11-21T13:56:36;8.20;1.00
48936;DHT22;34745;52.276;10.528;2023-11-21T13:59:04;8.10;1.00
48936;DHT22;34745;52.276;10.528;2023-11-21T14:01:52;8.10;1.00
48936;DHT22;34745;52.276;10.528;2023-11-21T14:04:24;8.10;1.00
48936;DHT22;34745;52.276;10.528;2023-11-21T14:06:57;8.00;1.00
48936;DHT22;34745;52.276;10.528;2023-11-21T14:09:26;8.00;1.00
48936;DHT22;34745;52.276;10.528;2023-11-21T14:11:59;8.00;1.00
48936;DHT22;34745;52.276;10.528;2023-11-21T14:14:30;8.00;1.00
48936;DHT22;34745;52.276;10.528;2023-11-21T14:16:58;8.00;1.00
48936;DHT22;34745;52.276;10.528;2023-11-21T14:19:33;7.90;1.00
48936;DHT22;34745;52.276;10.528;2023-11-21T14:22:03;7.90;1.00
48936;DHT22;34745;52.276;10.528;2023-11-21T14:24:31;7.90;1.00
48936;DHT22;34745;52.276;10.528;2023-11-21T14:26:59;7.90;1.00
48936;DHT22;34745;52.276;10.528;2023-11-21T14:29:27;7.90;1.00
48936;DHT22;34745;52.276;10.528;2023-11-21T14:31:57;7.80;1.00
48936;DHT22;34745;52.276;10.528;2023-11-21T14:34:25;7.80;1.00
48936;DHT22;34745;52.276;10.528;2023-11-21T14:36:53;7.70;1.00
48936;DHT22;34745;52.276;10.528;2023-11-21T14:39:21;7.80;1.00
48936;DHT22;34745;52.276;10.528;2023-11-21T14:41:54;7.80;1.00
48936;DHT22;34745;52.276;10.528;2023-11-21T14:44:23;7.70;1.00
48936;DHT22;34745;52.276;10.528;2023-11-21T14:46:53;7.70;1.00
48936;DHT22;34745;52.276;10.528;2023-11-21T14:49:25;7.70;1.00
48936;DHT22;34745;52.276;10.528;2023-11-21T14:51:55;7.70;1.00
48936;DHT22;34745;52.276;10.528;2023-11-21T14:54:35;7.70;1.00
48936;DHT22;34745;52.276;10.528;2023-11-21T14:57:09;7.60;1.00
48936;DHT22;34745;52.276;10.528;2023-11-21T14:59:44;7.60;1.00
48936;DHT22;34745;52.276;10.528;2023-11-21T15:02:14;7.60;1.00
48936;DHT22;34745;52.276;10.528;2023-11-21T15:04:44;7.50;1.00
48936;DHT22;34745;52.276;10.528;2023-11-21T15:07:11;7.60;1.00
48936;DHT22;34745;52.276;10.528;2023-11-21T15:09:39;7.70;1.00
48936;DHT22;34745;52.276;10.528;2023-11-21T15:12:08;7.50;1.00
48936;DHT22;34745;52.276;10.528;2023-11-21T15:14:43;7.50;1.00
48936;DHT22;34745;52.276;10.528;2023-11-21T15:17:12;7.50;1.00
48936;DHT22;34745;52.276;10.528;2023-11-21T15:19:51;7.50;1.00
48936;DHT22;34745;52.276;10.528;2023-11-21T15:22:19;7.50;1.00
48936;DHT22;34745;52.276;10.528;2023-11-21T15:24:46;7.50;1.00
48936;DHT22;34745;52.276;10.528;2023-11-21T15:27:14;7.40;1.00
48936;DHT22;34745;52.276;10.528;2023-11-21T15:29:42;7.30;1.00
48936;DHT22;34745;52.276;10.528;2023-11-21T15:32:10;7.20;1.00
48936;DHT22;34745;52.276;10.528;2023-11-21T15:34:38;7.20;1.00
48936;DHT22;34745;52.276;10.528;2023-11-21T15:37:08;7.20;1.00
48936;DHT22;34745;52.276;10.528;2023-11-21T15:39:38;7.20;1.00
48936;DHT22;34745;52.276;10.528;2023-11-21T15:42:06;7.10;1.00
48936;DHT22;34745;52.276;10.528;2023-11-21T15:44:37;7.00;1.00
48936;DHT22;34745;52.276;10.528;2023-11-21T15:47:04;7.00;1.00